Santa Rosa, CA

8:00 AM PDT on August 29, 2015 (GMT -0700)
Montgomery Village | | Change Station
CLOSE
Current Station
Personal Weather Station
Location: Santa Rosa, CA
Elevation: 196 ft
Nearby Weather Stations

Elev 196 ft 38.44 °N, 122.69 °W | Updated 6 seconds ago

Overcast
Overcast
65.1 °F
Feels Like 65.1 °F
N
0.0
Wind Variable Wind from ENE
Gusts 0.0 mph

Today
High -- | Low -- °F
--% Chance of Precip.
Yesterday
High -- | Low -- °F
Precip. -- in
6:37 AM 7:45 PM
Full, 100% visible
Pressure 29.93 in
Visibility 4.0 miles
Clouds Overcast 600 ft
Dew Point 63 °F
Humidity 93%
Rainfall 0.02 in
Snow Depth Not available.
UV 0 out of 12
Pollen 6.20 out of 12
Air Quality Not available.
Flu Activity Not available.
METAR KSTS 291453Z 00000KT 4SM BR OVC006 18/18 A2995 RMK AO2 RAE35 SLP134 P0001 60003 T01830178 53010
Pressure 29.93 in
Visibility 4.0 miles
Clouds Overcast 600 ft
Dew Point 63 °F
Humidity 93%
Rainfall 0.02 in
Snow Depth Not available.
UV 0 out of 12
Pollen 6.20 out of 12
Air Quality Not available.
Flu Activity Not available.
METAR KSTS 291453Z 00000KT 4SM BR OVC006 18/18 A2995 RMK AO2 RAE35 SLP134 P0001 60003 T01830178 53010

10-Day Weather Forecast

×

Almanac

Astronomy

Aug. 29, 2015 Rise Set
Actual Time
Civil Twilight
Nautical Twilight
Astronomical Twilight
Moon
Length of Visible Light
Length of Day
Tomorrow will be .
, % of the Moon is Illuminated

Today's Extremes

State Highs State Lows

Community

WunderPhotos

Upload Photos

1,850,684 photos uploaded!

WunderBlogs® & News

Nearby

Air Quality

  Air Quality AQ Index Pollutant
Not available.

Snow Depth

Station Depth Elevation

Earthquake Activity

City Distance Mag. Time & Date
Minimum magnitude displayed is 2.5.

Coastal Water Temperatures

Place Temperature

Stations

Nearby Weather Stations

Station Location Temp. Windchill Dew Point Humidity Wind Precip. Elev Updated Type